Time;durP1;ratioP1;P1;durP2;ratioP2;P2;SDS_P1;SDS_P2;PMS_P1;PMS_P2;Temp;Humidity;BMP_temperature;BMP_pressure;BME280_temperature;BME280_humidity;BME280_pressure;Samples;Min_cycle;Max_cycle;Signal;HPM_P1;HPM_P2
2021/05/19 00:00:56;;;;;;;21.75;8.00;;;;;;;10.15;82.96;101752.06;4998224;28;20062;-73
2021/05/19 00:03:24;;;;;;;26.95;8.68;;;;;;;10.19;82.69;101747.53;4995599;28;20076;-74
2021/05/19 00:05:51;;;;;;;17.38;7.70;;;;;;;10.21;82.66;101749.25;5000462;28;20072;-73
2021/05/19 00:08:19;;;;;;;20.00;7.53;;;;;;;10.21;82.71;101740.41;4994630;28;20069;-73
2021/05/19 00:10:47;;;;;;;18.73;8.23;;;;;;;10.23;82.65;101739.47;5000045;28;20253;-73
2021/05/19 00:13:14;;;;;;;25.55;8.52;;;;;;;10.25;82.96;101740.31;4997903;28;20066;-73
2021/05/19 00:15:42;;;;;;;18.40;7.40;;;;;;;10.26;82.67;101746.53;4998487;28;20065;-73
2021/05/19 00:18:09;;;;;;;22.88;7.75;;;;;;;10.27;83.10;101745.63;4998905;28;20072;-73
2021/05/19 00:20:36;;;;;;;23.55;8.88;;;;;;;10.26;82.54;101736.72;4998102;28;20145;-73
2021/05/19 00:23:04;;;;;;;21.63;6.85;;;;;;;10.25;82.64;101748.34;4996899;28;20472;-73
2021/05/19 00:25:31;;;;;;;21.60;7.82;;;;;;;10.24;82.88;101737.69;4997264;28;20066;-74
2021/05/19 00:27:58;;;;;;;19.75;7.32;;;;;;;10.22;83.01;101740.38;4997316;28;20468;-73
2021/05/19 00:30:25;;;;;;;20.90;7.60;;;;;;;10.21;82.82;101740.41;4997022;28;20054;-73
2021/05/19 00:32:53;;;;;;;23.00;7.10;;;;;;;10.20;82.77;101731.53;4999431;28;20062;-73
2021/05/19 00:35:21;;;;;;;17.77;6.30;;;;;;;10.22;83.01;101742.16;4999880;28;20176;-72
2021/05/19 00:37:48;;;;;;;20.30;7.82;;;;;;;10.21;83.14;101738.59;4996985;28;20057;-73
2021/05/19 00:40:16;;;;;;;20.75;6.47;;;;;;;10.21;83.11;101732.41;4995968;28;20058;-73
2021/05/19 00:42:43;;;;;;;21.42;7.55;;;;;;;10.20;83.11;101734.19;4998022;28;20457;-72
2021/05/19 00:45:12;;;;;;;17.60;6.43;;;;;;;10.22;82.48;101732.38;4999804;28;20058;-73
2021/05/19 00:47:41;;;;;;;20.83;7.50;;;;;;;10.22;82.46;101728.84;4999596;28;20061;-73
2021/05/19 00:50:12;;;;;;;15.07;5.97;;;;;;;10.21;82.37;101730.59;4998239;28;20062;-73
2021/05/19 00:52:40;;;;;;;16.10;5.95;;;;;;;10.18;82.18;101725.34;4998878;28;20062;-73
2021/05/19 00:55:08;;;;;;;17.60;6.72;;;;;;;10.17;82.33;101725.38;4994254;28;20065;-73
2021/05/19 00:57:37;;;;;;;17.48;6.05;;;;;;;10.15;81.88;101719.16;4997358;28;20062;-73
2021/05/19 01:00:07;;;;;;;19.90;6.40;;;;;;;10.12;81.89;101717.44;4992762;28;20065;-73
2021/05/19 01:02:36;;;;;;;15.50;6.03;;;;;;;10.09;82.28;101720.13;4997178;28;20073;-73
2021/05/19 01:05:04;;;;;;;16.00;6.28;;;;;;;10.03;82.38;101726.47;4998297;28;20068;-74
2021/05/19 01:07:35;;;;;;;16.05;6.05;;;;;;;9.98;82.31;101717.66;4996656;28;20061;-73
2021/05/19 01:10:03;;;;;;;18.83;7.10;;;;;;;9.93;82.30;101707.94;4995726;28;20053;-73
2021/05/19 01:12:31;;;;;;;20.45;6.65;;;;;;;9.89;82.75;101709.78;4996209;28;20057;-73
2021/05/19 01:14:59;;;;;;;19.73;7.45;;;;;;;9.86;83.49;101713.38;4995150;28;20088;-73
2021/05/19 01:17:26;;;;;;;18.77;6.90;;;;;;;9.81;83.62;101706.38;4997765;28;20069;-73
2021/05/19 01:19:53;;;;;;;22.52;7.32;;;;;;;9.83;84.07;101709.88;4998353;28;20672;-73
2021/05/19 01:22:24;;;;;;;21.67;7.68;;;;;;;9.83;83.84;101712.56;4996466;28;20192;-74
2021/05/19 01:24:52;;;;;;;21.40;8.02;;;;;;;9.84;84.54;101714.28;4999438;28;20058;-74
2021/05/19 01:27:20;;;;;;;25.52;8.70;;;;;;;9.84;84.38;101717.88;4995325;28;20065;-73
2021/05/19 01:29:48;;;;;;;20.20;7.57;;;;;;;9.86;84.40;101712.50;4993438;28;20065;-73
2021/05/19 01:32:16;;;;;;;19.23;7.28;;;;;;;9.84;84.18;101711.63;4995559;28;20058;-73
2021/05/19 01:34:44;;;;;;;20.85;7.45;;;;;;;9.81;84.64;101712.56;4994862;28;20065;-73
2021/05/19 01:37:14;;;;;;;31.42;8.27;;;;;;;9.82;84.36;101716.09;5002132;28;20066;-74
2021/05/19 01:39:43;;;;;;;28.33;8.63;;;;;;;9.78;85.17;101712.63;4995059;28;20102;-74
2021/05/19 01:42:11;;;;;;;21.33;8.50;;;;;;;9.80;85.22;101712.59;4997497;28;20062;-74
2021/05/19 01:44:39;;;;;;;24.02;8.38;;;;;;;9.74;85.93;101713.56;4993007;28;20137;-73
2021/05/19 01:47:07;;;;;;;22.52;8.57;;;;;;;9.72;85.61;101718.03;5002050;28;20105;-75
2021/05/19 01:49:39;;;;;;;30.58;9.63;;;;;;;9.69;86.20;101716.31;4995251;28;20062;-74
2021/05/19 01:52:08;;;;;;;27.40;9.40;;;;;;;9.68;86.24;101717.19;5000060;28;20073;-75
2021/05/19 01:54:38;;;;;;;29.92;9.80;;;;;;;9.69;86.54;101716.31;4996388;28;20148;-74
2021/05/19 01:57:07;;;;;;;30.38;9.95;;;;;;;9.65;86.20;101713.69;4996692;28;20513;-74
2021/05/19 01:59:35;;;;;;;32.13;9.75;;;;;;;9.60;86.99;101710.22;4995367;28;20080;-74
2021/05/19 02:02:03;;;;;;;20.35;8.65;;;;;;;9.57;86.50;101719.16;4997798;28;20070;-74
2021/05/19 02:04:31;;;;;;;29.88;9.40;;;;;;;9.55;86.84;101712.94;4995040;28;20054;-75
2021/05/19 02:07:00;;;;;;;28.20;10.65;;;;;;;9.50;86.39;101710.34;4994035;28;20058;-75
2021/05/19 02:09:28;;;;;;;30.50;9.27;;;;;;;9.46;86.88;101715.72;4995754;28;20068;-74
2021/05/19 02:11:55;;;;;;;27.55;10.35;;;;;;;9.42;86.75;101711.38;4995855;28;20097;-74
2021/05/19 02:14:24;;;;;;;31.60;11.70;;;;;;;9.38;86.37;101715.84;4997955;28;21553;-74
2021/05/19 02:16:52;;;;;;;22.92;8.57;;;;;;;9.31;85.97;101706.16;4993462;28;20057;-75
2021/05/19 02:19:20;;;;;;;27.08;10.45;;;;;;;9.27;87.64;101705.31;4996931;28;20062;-74
2021/05/19 02:21:49;;;;;;;29.77;10.63;;;;;;;9.26;87.33;101710.66;4994294;28;20590;-74
2021/05/19 02:24:18;;;;;;;31.10;11.13;;;;;;;9.22;87.05;101709.81;4995235;28;20046;-74
2021/05/19 02:26:46;;;;;;;25.38;9.10;;;;;;;9.18;86.62;101709.88;4994786;28;20491;-74
2021/05/19 02:29:14;;;;;;;27.83;10.02;;;;;;;9.14;86.77;101703.72;4996234;28;20049;-74
2021/05/19 02:31:44;;;;;;;32.83;11.80;;;;;;;9.11;87.09;101717.09;4998596;28;20068;-74
2021/05/19 02:34:12;;;;;;;30.88;11.88;;;;;;;9.08;87.30;101714.44;4995744;28;20053;-74
2021/05/19 02:36:40;;;;;;;33.00;11.90;;;;;;;9.04;87.35;101715.38;4997675;28;20062;-74
2021/05/19 02:39:09;;;;;;;28.42;11.25;;;;;;;8.98;87.45;101713.66;4996445;28;20062;-74
2021/05/19 02:41:38;;;;;;;27.55;11.32;;;;;;;8.93;87.66;101718.16;4997310;28;20480;-74
2021/05/19 02:44:10;;;;;;;29.40;12.70;;;;;;;8.93;87.45;101713.72;4994672;28;20058;-74
2021/05/19 02:46:38;;;;;;;30.48;12.10;;;;;;;8.96;88.15;101710.16;4995227;28;20069;-74
2021/05/19 02:49:06;;;;;;;36.28;13.88;;;;;;;8.93;87.82;101716.38;4995653;28;20327;-75
2021/05/19 02:51:37;;;;;;;30.08;13.13;;;;;;;8.93;88.06;101713.72;4994413;28;20073;-74
2021/05/19 02:54:06;;;;;;;32.15;12.52;;;;;;;8.93;87.69;101718.16;4993366;28;20112;-74
2021/05/19 02:56:33;;;;;;;37.10;13.30;;;;;;;8.92;87.98;101719.06;4995930;28;20244;-74
2021/05/19 02:59:01;;;;;;;31.92;13.90;;;;;;;8.90;87.79;101716.41;4994097;28;20156;-74
2021/05/19 03:01:28;;;;;;;39.25;14.00;;;;;;;8.92;87.82;101727.03;4995289;28;20088;-75
2021/05/19 03:03:55;;;;;;;30.83;13.60;;;;;;;8.86;88.01;101720.00;4998506;28;20053;-74
2021/05/19 03:06:24;;;;;;;37.92;14.77;;;;;;;8.83;87.81;101722.69;4993516;28;20301;-76
2021/05/19 03:08:51;;;;;;;37.28;13.60;;;;;;;8.81;87.52;101720.97;4993104;28;20070;-73
2021/05/19 03:11:18;;;;;;;36.58;13.07;;;;;;;8.79;87.56;101719.19;4990601;28;20083;-73
2021/05/19 03:13:46;;;;;;;35.45;13.50;;;;;;;8.82;87.59;101723.63;4996572;28;20058;-74
2021/05/19 03:16:13;;;;;;;35.30;13.35;;;;;;;8.83;87.46;101724.50;4992992;28;20356;-74
2021/05/19 03:18:40;;;;;;;35.35;13.25;;;;;;;8.82;87.66;101717.38;4996304;28;20067;-74
2021/05/19 03:21:08;;;;;;;29.65;11.75;;;;;;;8.81;87.61;101711.19;4994072;28;20066;-74
2021/05/19 03:23:36;;;;;;;30.70;12.48;;;;;;;8.80;87.70;101717.41;4996628;28;20142;-74
2021/05/19 03:26:03;;;;;;;26.65;12.65;;;;;;;8.83;87.39;101714.72;4996123;28;20416;-74
2021/05/19 03:28:31;;;;;;;33.45;12.30;;;;;;;8.85;87.84;101707.59;5004151;28;20058;-74
2021/05/19 03:30:58;;;;;;;31.55;13.05;;;;;;;8.83;87.56;101717.38;4999787;28;20053;-73
2021/05/19 03:33:29;;;;;;;34.30;12.00;;;;;;;8.88;87.67;101722.66;4998003;28;20367;-73
2021/05/19 03:35:57;;;;;;;35.83;13.05;;;;;;;8.91;87.60;101709.31;4999452;28;20135;-72
2021/05/19 03:38:25;;;;;;;32.05;12.50;;;;;;;8.94;87.42;101715.47;4999964;28;20058;-73
2021/05/19 03:40:53;;;;;;;33.88;13.25;;;;;;;8.99;87.57;101707.47;5000404;28;20074;-73
2021/05/19 03:43:21;;;;;;;32.08;13.02;;;;;;;9.02;87.70;101712.72;5001082;28;20077;-73
2021/05/19 03:45:48;;;;;;;40.05;14.38;;;;;;;9.07;87.67;101715.34;4999712;28;20065;-73
2021/05/19 03:48:16;;;;;;;43.72;13.38;;;;;;;9.11;87.01;101707.31;4997927;28;20085;-73
2021/05/19 03:50:44;;;;;;;37.50;13.85;;;;;;;9.15;86.96;101714.34;5001816;28;20062;-74
2021/05/19 03:53:11;;;;;;;36.75;13.00;;;;;;;9.21;87.94;101717.81;4994848;28;20072;-73
2021/05/19 03:55:39;;;;;;;35.88;13.30;;;;;;;9.21;87.92;101717.81;4999684;28;20453;-73
2021/05/19 03:58:07;;;;;;;33.60;12.30;;;;;;;9.23;87.98;101716.94;4995322;28;20144;-73
2021/05/19 04:00:35;;;;;;;28.90;12.95;;;;;;;9.26;88.33;101710.66;5000861;28;20054;-73
2021/05/19 04:03:03;;;;;;;29.48;13.48;;;;;;;9.24;88.25;101716.00;4999784;28;20054;-72
2021/05/19 04:05:34;;;;;;;28.92;12.43;;;;;;;9.23;88.96;101711.59;5000129;28;20380;-75
2021/05/19 04:08:01;;;;;;;33.58;12.35;;;;;;;9.25;89.51;101711.59;5002136;28;20515;-74
2021/05/19 04:10:28;;;;;;;29.52;12.27;;;;;;;9.25;89.31;101709.78;5002055;28;20214;-74
2021/05/19 04:12:56;;;;;;;29.83;11.40;;;;;;;9.22;89.41;101716.94;5001374;28;20077;-74
2021/05/19 04:15:25;;;;;;;29.48;11.50;;;;;;;9.24;89.53;101715.13;4997699;28;20057;-75
2021/05/19 04:17:53;;;;;;;33.10;12.38;;;;;;;9.17;89.87;101714.31;4996507;28;20282;-74
2021/05/19 04:20:21;;;;;;;27.42;11.48;;;;;;;9.22;90.04;101715.16;4996232;28;20064;-74
2021/05/19 04:22:48;;;;;;;39.58;14.10;;;;;;;9.20;90.47;101711.63;5001724;28;20054;-74
2021/05/19 04:25:16;;;;;;;29.27;11.98;;;;;;;9.14;90.29;101717.91;4994782;28;20076;-73
2021/05/19 04:27:43;;;;;;;29.33;11.00;;;;;;;9.19;90.69;101711.66;4997360;28;20085;-73
2021/05/19 04:30:12;;;;;;;34.25;14.18;;;;;;;9.15;90.83;101708.16;4995374;28;20069;-72
2021/05/19 04:32:40;;;;;;;32.40;12.57;;;;;;;9.20;91.03;101716.09;4998546;28;20097;-72
2021/05/19 04:35:09;;;;;;;32.92;11.95;;;;;;;9.16;91.00;101709.91;4995081;28;20486;-71
2021/05/19 04:37:36;;;;;;;30.45;12.10;;;;;;;9.25;91.04;101715.13;4998928;28;20050;-71
2021/05/19 04:40:06;;;;;;;33.13;13.10;;;;;;;9.31;91.69;101716.81;4996194;28;20058;-70
2021/05/19 04:42:34;;;;;;;33.30;12.57;;;;;;;9.37;90.85;101715.88;4995558;28;20062;-73
2021/05/19 04:45:01;;;;;;;34.95;13.63;;;;;;;9.49;91.05;101718.38;4996835;28;20062;-73
2021/05/19 04:47:28;;;;;;;35.78;14.02;;;;;;;9.56;90.62;101708.50;4994450;28;20145;-72
2021/05/19 04:49:56;;;;;;;36.55;15.13;;;;;;;9.67;90.32;101717.22;4997495;28;20306;-73
2021/05/19 04:52:24;;;;;;;39.17;13.63;;;;;;;9.78;90.13;101720.59;4997399;28;20065;-73
2021/05/19 04:54:51;;;;;;;41.75;15.77;;;;;;;9.84;90.36;101716.97;4998740;28;20070;-74
2021/05/19 04:57:19;;;;;;;43.92;15.18;;;;;;;9.90;90.42;101720.41;4993447;28;21126;-74
2021/05/19 04:59:46;;;;;;;48.95;17.58;;;;;;;9.87;90.78;101719.59;4998606;28;20058;-73
2021/05/19 05:02:13;;;;;;;43.25;16.75;;;;;;;9.88;90.57;101721.38;4994462;28;20068;-73
2021/05/19 05:04:40;;;;;;;48.70;16.83;;;;;;;9.79;90.67;101727.72;4998550;28;20411;-74
2021/05/19 05:07:08;;;;;;;45.28;16.50;;;;;;;9.82;90.66;101722.31;4995783;28;20177;-74
2021/05/19 05:09:36;;;;;;;48.58;17.90;;;;;;;9.79;91.13;101725.06;4994339;28;20223;-74
2021/05/19 05:12:03;;;;;;;59.70;22.38;;;;;;;9.73;91.57;101720.66;4996067;28;20054;-73
2021/05/19 05:14:30;;;;;;;55.05;22.08;;;;;;;9.72;91.98;101720.69;4994244;28;20050;-73
2021/05/19 05:16:58;;;;;;;63.97;24.80;;;;;;;9.69;91.98;101726.97;4999049;28;20062;-73
2021/05/19 05:19:25;;;;;;;54.25;21.23;;;;;;;9.75;91.97;101727.78;4994974;28;20062;-73
2021/05/19 05:21:52;;;;;;;61.28;24.95;;;;;;;9.73;91.62;101734.00;4997707;28;20058;-74
2021/05/19 05:24:23;;;;;;;55.63;24.05;;;;;;;9.78;91.39;101735.72;4994337;28;20208;-73
2021/05/19 05:26:50;;;;;;;58.95;23.27;;;;;;;9.82;91.18;101730.31;4997090;28;20398;-74
2021/05/19 05:29:17;;;;;;;62.53;25.40;;;;;;;9.83;90.96;101729.41;4996939;28;20062;-74
2021/05/19 05:31:44;;;;;;;65.07;25.70;;;;;;;9.86;90.64;101733.84;5000149;28;20058;-74
2021/05/19 05:34:12;;;;;;;64.45;25.92;;;;;;;9.89;90.99;101731.09;4996940;28;20288;-74
2021/05/19 05:36:39;;;;;;;67.85;24.30;;;;;;;9.89;91.02;101734.66;4997171;28;20062;-75
2021/05/19 05:39:06;;;;;;;56.85;23.52;;;;;;;9.98;90.77;101733.66;4996752;28;20141;-74
2021/05/19 05:41:35;;;;;;;64.53;26.02;;;;;;;10.02;90.71;101734.47;4995869;28;20061;-74
2021/05/19 05:44:03;;;;;;;67.20;26.55;;;;;;;10.11;90.67;101739.66;4995720;28;20058;-74
2021/05/19 05:46:30;;;;;;;71.63;28.20;;;;;;;10.20;90.78;101736.84;4994198;28;20471;-74
2021/05/19 05:48:59;;;;;;;70.03;28.40;;;;;;;10.44;89.93;101743.59;4999588;28;20062;-73
2021/05/19 05:51:26;;;;;;;65.82;24.90;;;;;;;10.53;89.29;101739.00;4997541;28;20058;-75
2021/05/19 05:53:54;;;;;;;62.35;24.67;;;;;;;10.70;88.48;101741.38;4996922;28;20050;-74
2021/05/19 05:56:22;;;;;;;57.55;24.13;;;;;;;11.39;87.46;101740.91;4996918;28;20070;-74
2021/05/19 05:58:51;;;;;;;62.55;26.05;;;;;;;11.18;86.30;101741.34;4998501;28;20062;-75
2021/05/19 06:01:19;;;;;;;56.17;22.23;;;;;;;11.10;86.71;101743.28;4998243;28;20066;-75
2021/05/19 06:03:46;;;;;;;54.83;21.75;;;;;;;11.12;87.24;101744.16;4995269;28;20062;-74
2021/05/19 06:06:13;;;;;;;56.92;22.95;;;;;;;11.08;86.85;101737.97;5000975;28;20072;-73
2021/05/19 06:08:41;;;;;;;54.45;23.85;;;;;;;11.23;86.08;101738.59;4992934;28;20154;-73
2021/05/19 06:11:08;;;;;;;60.85;23.42;;;;;;;11.56;84.88;101732.53;4996957;28;20077;-73
2021/05/19 06:13:35;;;;;;;58.17;23.75;;;;;;;11.36;85.13;101745.44;4997645;28;20143;-74
2021/05/19 06:16:04;;;;;;;60.10;24.02;;;;;;;11.48;84.38;101739.81;4997559;28;20085;-73
2021/05/19 06:18:32;;;;;;;61.03;23.75;;;;;;;11.28;84.58;101750.91;4996890;28;20061;-72
2021/05/19 06:20:59;;;;;;;57.53;25.00;;;;;;;11.36;84.18;101737.41;4995044;28;20068;-71
2021/05/19 06:23:26;;;;;;;56.95;24.02;;;;;;;11.20;83.96;101743.09;4996855;28;20185;-71
2021/05/19 06:25:54;;;;;;;56.38;23.40;;;;;;;11.39;84.58;101734.66;4997195;28;20062;-70
2021/05/19 06:28:21;;;;;;;51.47;23.15;;;;;;;11.26;84.54;101736.72;4998051;28;20068;-70
2021/05/19 06:30:48;;;;;;;52.10;23.67;;;;;;;11.41;85.00;101743.56;4994461;28;20289;-72
2021/05/19 06:33:16;;;;;;;50.90;22.80;;;;;;;11.42;84.17;101742.63;4993961;28;20481;-69
2021/05/19 06:35:44;;;;;;;56.15;22.30;;;;;;;11.41;83.93;101748.88;4997927;28;20056;-71
2021/05/19 06:38:11;;;;;;;48.80;22.13;;;;;;;11.43;83.97;101746.19;4997163;28;20062;-70
2021/05/19 06:40:38;;;;;;;52.90;21.85;;;;;;;11.41;84.76;101746.22;4996001;28;20062;-71
2021/05/19 06:43:05;;;;;;;49.20;22.27;;;;;;;11.48;83.17;101745.16;4996798;28;20156;-71
2021/05/19 06:45:34;;;;;;;57.33;21.80;;;;;;;11.89;82.84;101735.34;4994774;28;20073;-71
2021/05/19 06:48:02;;;;;;;53.47;21.45;;;;;;;11.98;81.78;101734.28;4995802;28;20109;-71
2021/05/19 06:50:30;;;;;;;53.97;21.95;;;;;;;12.13;82.19;101735.72;4994491;28;20054;-71
2021/05/19 06:52:58;;;;;;;50.30;21.67;;;;;;;12.26;81.35;101733.59;4996155;28;20145;-70
2021/05/19 06:55:26;;;;;;;47.22;20.80;;;;;;;12.22;80.93;101732.78;4990645;28;20909;-71
2021/05/19 06:57:53;;;;;;;47.90;21.38;;;;;;;12.47;80.81;101735.75;4996385;28;20080;-70
2021/05/19 07:00:22;;;;;;;39.60;18.77;;;;;;;12.55;80.88;101742.69;5003001;28;20053;-71
2021/05/19 07:02:49;;;;;;;41.28;19.20;;;;;;;12.52;80.99;101740.97;4996409;28;20446;-71
2021/05/19 07:05:16;;;;;;;47.25;19.45;;;;;;;12.43;80.48;101742.09;5003512;28;20108;-72
2021/05/19 07:07:46;;;;;;;41.78;18.35;;;;;;;12.42;80.43;101743.00;4995431;28;20064;-72
2021/05/19 07:10:14;;;;;;;45.30;18.15;;;;;;;12.42;80.44;101739.47;4999531;28;20055;-72
2021/05/19 07:12:41;;;;;;;34.03;15.95;;;;;;;12.60;79.83;101741.66;4995453;28;20089;-72
2021/05/19 07:15:12;;;;;;;31.15;12.65;;;;;;;12.62;78.60;101731.78;4999509;28;20130;-72
2021/05/19 07:17:41;;;;;;;33.58;13.82;;;;;;;12.71;78.37;101734.22;4996097;28;20240;-72
2021/05/19 07:20:10;;;;;;;30.52;15.57;;;;;;;12.66;78.30;101733.44;4999058;28;20084;-74
2021/05/19 07:22:38;;;;;;;34.35;15.95;;;;;;;12.55;78.25;101740.91;4997652;28;20058;-73
2021/05/19 07:25:08;;;;;;;36.53;15.75;;;;;;;12.84;78.35;101739.25;5000130;28;20059;-74
2021/05/19 07:27:36;;;;;;;25.98;12.52;;;;;;;12.64;76.77;101740.66;4996947;28;20069;-72
2021/05/19 07:30:04;;;;;;;21.55;9.93;;;;;;;12.81;75.91;101739.34;5000156;28;20062;-72
2021/05/19 07:32:32;;;;;;;24.20;10.90;;;;;;;12.84;76.54;101736.56;4992262;28;20062;-74
2021/05/19 07:34:59;;;;;;;24.75;11.13;;;;;;;12.58;76.74;101737.25;4985311;28;20129;-73
2021/05/19 07:37:27;;;;;;;26.98;10.75;;;;;;;12.52;76.46;101738.31;4995802;28;20053;-72
2021/05/19 07:39:54;;;;;;;25.52;10.27;;;;;;;12.49;77.60;101741.06;4997754;28;20074;-72
2021/05/19 07:42:22;;;;;;;26.35;9.35;;;;;;;12.32;78.22;101745.03;5001920;28;20062;-72
2021/05/19 07:44:50;;;;;;;16.75;8.73;;;;;;;12.17;80.00;101745.41;5001335;28;20080;-72
2021/05/19 07:47:16;;;;;;;24.13;8.68;;;;;;;12.04;82.07;101746.66;5000175;28;20161;-75
2021/05/19 07:49:42;;;;;;;21.70;8.13;;;;;;;12.00;81.53;101753.84;4995738;28;20062;-74
2021/05/19 07:52:08;;;;;;;18.15;7.00;;;;;;;11.80;81.72;101748.94;4996598;28;20089;-74
2021/05/19 07:54:36;;;;;;;15.30;5.47;;;;;;;11.69;80.42;101748.28;5000838;28;20460;-75
2021/05/19 07:57:09;;;;;;;13.25;5.55;;;;;;;11.53;81.02;101761.97;4993017;28;20054;-73
2021/05/19 07:59:36;;;;;;;11.20;4.22;;;;;;;11.56;81.05;101767.28;5000241;28;20073;-72
2021/05/19 08:02:04;;;;;;;8.25;2.88;;;;;;;11.14;77.87;101769.03;4992965;28;20453;-73
2021/05/19 08:04:32;;;;;;;7.78;2.63;;;;;;;10.88;77.72;101775.75;5000394;28;20149;-72
2021/05/19 08:06:59;;;;;;;6.05;2.65;;;;;;;10.26;77.56;101781.22;4991608;28;20062;-71
2021/05/19 08:09:25;;;;;;;9.95;3.42;;;;;;;10.21;81.60;101780.41;4997904;28;20215;-71
2021/05/19 08:11:51;;;;;;;10.15;4.47;;;;;;;10.03;82.01;101778.91;4995730;28;20097;-71
2021/05/19 08:14:18;;;;;;;8.18;3.25;;;;;;;9.81;81.30;101771.22;5001312;28;20066;-70
2021/05/19 08:16:45;;;;;;;9.27;4.03;;;;;;;9.67;82.98;101784.72;4991417;28;20516;-71
2021/05/19 08:19:11;;;;;;;9.93;4.60;;;;;;;9.62;83.22;101772.34;4999031;28;20542;-72
2021/05/19 08:21:40;;;;;;;13.07;4.22;;;;;;;9.47;84.14;101776.13;4995045;28;21793;-70
2021/05/19 08:24:08;;;;;;;9.55;4.20;;;;;;;9.47;85.85;101782.31;4999096;28;20072;-70
2021/05/19 08:26:36;;;;;;;13.88;5.00;;;;;;;9.61;84.90;101767.94;4996030;28;20064;-70
2021/05/19 08:29:04;;;;;;;11.40;5.40;;;;;;;9.63;86.17;101769.66;4997238;28;20084;-70
2021/05/19 08:31:31;;;;;;;15.73;6.88;;;;;;;9.74;87.09;101774.88;4996008;28;20072;-72
2021/05/19 08:34:11;;;;;;;16.67;8.13;;;;;;;9.87;88.13;101776.44;4992032;28;20120;-72
2021/05/19 08:36:39;;;;;;;19.38;8.55;;;;;;;9.99;88.26;101770.06;4997924;28;20638;-73
2021/05/19 08:39:06;;;;;;;24.98;10.05;;;;;;;10.13;88.65;101775.19;4999450;28;20069;-72
2021/05/19 08:41:33;;;;;;;23.98;9.80;;;;;;;10.31;89.00;101786.47;4999992;28;20064;-72
2021/05/19 08:44:01;;;;;;;18.67;6.90;;;;;;;10.45;88.16;101793.41;4996901;28;20136;-71
2021/05/19 08:46:28;;;;;;;9.80;4.15;;;;;;;10.37;85.21;101791.72;4995877;28;20469;-72
2021/05/19 08:49:01;;;;;;;9.00;4.47;;;;;;;10.45;85.52;101793.41;4996187;28;20080;-73
2021/05/19 08:51:30;;;;;;;9.68;3.90;;;;;;;10.49;84.27;101796.00;4996212;28;20184;-73
2021/05/19 08:53:57;;;;;;;8.07;3.45;;;;;;;10.80;86.60;101799.03;4995694;28;20062;-72
2021/05/19 08:56:25;;;;;;;10.10;3.03;;;;;;;10.93;84.34;101792.56;4996231;28;20164;-73
2021/05/19 08:58:52;;;;;;;9.02;2.78;;;;;;;11.11;84.00;101796.66;4997564;28;20073;-73
2021/05/19 09:01:20;;;;;;;5.93;2.38;;;;;;;11.32;84.32;101798.06;4998610;28;20061;-72
2021/05/19 09:04:01;;;;;;;5.90;2.38;;;;;;;11.23;82.24;101806.25;4999402;28;20197;-71
2021/05/19 09:06:33;;;;;;;4.50;2.00;;;;;;;11.24;81.26;101796.44;4997399;28;20116;-72
2021/05/19 09:09:18;;;;;;;6.65;2.10;;;;;;;11.35;82.09;101795.31;4996967;28;20061;-70
2021/05/19 09:11:58;;;;;;;;;;;;;;;11.25;78.58;101806.22;4997918;28;20157;-70
2021/05/19 09:14:26;;;;;;;5.88;1.80;;;;;;;11.16;78.63;101802.81;4994655;28;19930;-71
2021/05/19 09:17:14;;;;;;;6.28;2.20;;;;;;;11.16;80.11;101805.47;4995330;28;20066;-69
2021/05/19 09:19:41;;;;;;;3.55;1.90;;;;;;;11.04;78.39;101803.03;4997748;28;20065;-68
2021/05/19 09:22:17;;;;;;;6.20;2.28;;;;;;;10.96;79.79;101805.84;4993844;28;20064;-68
2021/05/19 09:24:45;;;;;;;3.53;1.88;;;;;;;11.01;80.56;101809.31;4996507;28;20058;-71
2021/05/19 09:27:12;;;;;;;3.80;1.95;;;;;;;10.94;80.25;101806.78;4993857;28;20070;-69
2021/05/19 09:29:43;;;;;;;8.73;2.30;;;;;;;10.78;80.61;101807.06;4997112;28;20111;-69
2021/05/19 09:32:13;;;;;;;6.15;2.35;;;;;;;11.11;82.10;101815.38;4994106;28;20061;-70
2021/05/19 09:34:41;;;;;;;6.20;2.65;;;;;;;11.18;81.00;101810.78;4996116;28;20069;-70
2021/05/19 09:37:22;;;;;;;4.75;1.95;;;;;;;11.07;80.48;101808.34;4997646;28;20061;-71
2021/05/19 09:39:53;;;;;;;5.25;2.38;;;;;;;11.20;81.89;101811.63;4996483;28;20054;-72
2021/05/19 09:42:22;;;;;;;5.72;2.40;;;;;;;11.28;81.17;101811.50;4997181;28;20418;-73
2021/05/19 09:44:51;;;;;;;7.40;2.58;;;;;;;11.34;80.28;101816.72;4993141;28;20127;-73
2021/05/19 09:47:38;;;;;;;5.25;2.35;;;;;;;11.45;82.17;101816.50;5000426;28;20065;-73
2021/05/19 09:50:07;;;;;;;8.38;2.83;;;;;;;11.45;80.43;101825.41;4997066;28;20054;-73
2021/05/19 09:52:36;;;;;;;5.38;2.20;;;;;;;11.56;81.71;101819.81;4996974;28;20148;-73
2021/05/19 09:55:09;;;;;;;5.45;2.13;;;;;;;11.34;80.19;101825.63;4995326;28;20070;-73
2021/05/19 09:57:51;;;;;;;4.93;2.28;;;;;;;11.30;79.39;101828.38;4996367;28;20096;-72
2021/05/19 10:00:22;;;;;;;5.50;2.35;;;;;;;11.43;79.63;101829.91;4995023;28;20373;-72
2021/05/19 10:02:49;;;;;;;4.85;2.10;;;;;;;11.67;80.02;101827.66;4998163;28;20061;-73
2021/05/19 10:05:19;;;;;;;4.13;2.10;;;;;;;11.76;78.90;101828.34;4995611;28;20405;-73
2021/05/19 10:07:48;;;;;;;6.75;2.97;;;;;;;11.85;77.54;101831.72;5000074;28;20068;-72
2021/05/19 10:10:15;;;;;;;6.93;2.60;;;;;;;11.81;76.42;101830.91;4995311;28;20266;-72
2021/05/19 10:12:44;;;;;;;6.60;2.90;;;;;;;11.91;78.37;101826.28;4994174;28;20062;-73
2021/05/19 10:15:17;;;;;;;6.90;3.03;;;;;;;11.83;78.06;101837.09;4997128;28;20073;-73
2021/05/19 10:17:48;;;;;;;10.18;4.63;;;;;;;11.68;77.83;101829.38;4992810;28;20061;-73
2021/05/19 10:20:21;;;;;;;8.02;3.20;;;;;;;11.74;76.88;101829.28;4998821;28;20136;-74
2021/05/19 10:22:50;;;;;;;8.37;4.03;;;;;;;11.67;79.26;101838.34;4993849;28;20414;-73
2021/05/19 10:25:37;;;;;;;7.00;3.28;;;;;;;11.52;79.18;101844.88;5000173;28;20336;-74
2021/05/19 10:28:06;;;;;;;7.30;3.30;;;;;;;11.72;80.25;101841.81;4992073;28;20061;-73
2021/05/19 10:30:42;;;;;;;10.52;3.72;;;;;;;11.95;80.48;101841.31;4994967;28;20058;-72
2021/05/19 10:33:45;;;;;;;10.20;2.95;;;;;;;11.68;78.01;101842.75;4993763;28;20051;-71
2021/05/19 10:36:41;;;;;;;8.25;3.63;;;;;;;11.75;78.12;101844.41;4992893;28;20058;-71
2021/05/19 10:39:23;;;;;;;5.88;2.63;;;;;;;11.94;77.87;101842.25;4992134;28;20068;-71
2021/05/19 10:41:56;;;;;;;7.78;2.40;;;;;;;11.97;77.56;101842.19;4997861;28;20065;-70
2021/05/19 10:44:28;;;;;;;4.47;1.92;;;;;;;12.13;76.09;101840.03;4994003;28;20054;-69
2021/05/19 10:47:02;;;;;;;4.20;1.80;;;;;;;12.02;73.31;101844.75;4998798;28;21823;-69
2021/05/19 10:50:03;;;;;;;4.15;1.50;;;;;;;12.03;75.13;101847.38;4989720;28;20073;-69
2021/05/19 10:52:39;;;;;;;6.25;2.05;;;;;;;12.27;75.48;101837.91;4997647;28;20066;-70
2021/05/19 10:57:57;;;;;;;2.97;1.80;;;;;;;11.85;72.99;101837.97;4995445;28;20526;-71
2021/05/19 11:00:25;;;;;;;6.38;2.10;;;;;;;12.07;76.04;101840.16;4993424;28;20069;-70
2021/05/19 11:03:14;;;;;;;4.22;1.92;;;;;;;12.31;72.12;101836.94;4992498;28;20072;-70
2021/05/19 11:06:03;;;;;;;3.45;2.00;;;;;;;12.41;72.01;101837.63;4995139;28;20112;-72
2021/05/19 11:08:34;;;;;;;2.92;1.75;;;;;;;12.64;72.50;101834.38;4994622;28;20062;-71
2021/05/19 11:11:32;;;;;;;4.57;2.08;;;;;;;12.75;72.60;101826.06;4997171;28;20092;-70
2021/05/19 11:14:19;;;;;;;3.42;1.80;;;;;;;12.88;71.83;101823.94;4972734;28;20054;-71
2021/05/19 11:16:54;;;;;;;3.05;1.75;;;;;;;13.03;70.26;101823.53;4995579;28;20066;-71
2021/05/19 11:19:29;;;;;;;4.05;1.85;;;;;;;13.08;69.68;101818.06;4993810;28;20096;-71
2021/05/19 11:22:02;;;;;;;4.70;2.25;;;;;;;12.81;68.29;101819.69;4995284;28;20062;-73
2021/05/19 11:24:30;;;;;;;2.42;1.70;;;;;;;13.10;71.69;101828.75;4998415;28;20108;-71
2021/05/19 11:26:58;;;;;;;3.90;1.88;;;;;;;13.29;69.54;101823.75;4990992;28;20144;-72
2021/05/19 11:29:25;;;;;;;3.97;2.20;;;;;;;13.42;69.56;101826.09;4995664;28;20282;-73
2021/05/19 11:31:54;;;;;;;3.38;1.80;;;;;;;13.43;70.08;101814.47;4993653;28;20062;-71